sensor_id;sensor_type;location;lat;lon;timestamp;P1;durP1;ratioP1;P2;durP2;ratioP2
71777;SDS011;59609;52.430;4.668;2023-03-01T00:01:44;13.65;;;6.85;;
71777;SDS011;59609;52.430;4.668;2023-03-01T00:04:10;17.67;;;7.45;;
71777;SDS011;59609;52.430;4.668;2023-03-01T00:06:35;13.77;;;6.45;;
71777;SDS011;59609;52.430;4.668;2023-03-01T00:09:02;18.05;;;7.18;;
71777;SDS011;59609;52.430;4.668;2023-03-01T00:11:28;16.75;;;6.97;;
71777;SDS011;59609;52.430;4.668;2023-03-01T00:13:56;14.77;;;7.40;;
71777;SDS011;59609;52.430;4.668;2023-03-01T00:16:30;16.25;;;7.20;;
71777;SDS011;59609;52.430;4.668;2023-03-01T00:18:58;36.88;;;12.18;;
71777;SDS011;59609;52.430;4.668;2023-03-01T00:21:24;27.45;;;9.63;;
71777;SDS011;59609;52.430;4.668;2023-03-01T00:23:50;20.52;;;8.20;;
71777;SDS011;59609;52.430;4.668;2023-03-01T00:26:17;17.38;;;7.75;;
71777;SDS011;59609;52.430;4.668;2023-03-01T00:28:44;19.85;;;7.97;;
71777;SDS011;59609;52.430;4.668;2023-03-01T00:31:14;16.10;;;8.07;;
71777;SDS011;59609;52.430;4.668;2023-03-01T00:33:41;16.90;;;8.88;;
71777;SDS011;59609;52.430;4.668;2023-03-01T00:36:07;18.38;;;6.88;;
71777;SDS011;59609;52.430;4.668;2023-03-01T00:38:37;17.10;;;7.95;;
71777;SDS011;59609;52.430;4.668;2023-03-01T00:41:05;20.52;;;8.32;;
71777;SDS011;59609;52.430;4.668;2023-03-01T00:43:31;17.73;;;7.90;;
71777;SDS011;59609;52.430;4.668;2023-03-01T00:46:01;17.15;;;7.80;;
71777;SDS011;59609;52.430;4.668;2023-03-01T00:48:31;17.92;;;8.23;;
71777;SDS011;59609;52.430;4.668;2023-03-01T00:51:03;16.63;;;7.50;;
71777;SDS011;59609;52.430;4.668;2023-03-01T00:53:32;20.88;;;8.18;;
71777;SDS011;59609;52.430;4.668;2023-03-01T00:55:58;16.92;;;7.75;;
71777;SDS011;59609;52.430;4.668;2023-03-01T00:58:25;18.83;;;8.40;;
71777;SDS011;59609;52.430;4.668;2023-03-01T01:00:50;18.73;;;7.85;;
71777;SDS011;59609;52.430;4.668;2023-03-01T01:03:17;18.92;;;7.88;;
71777;SDS011;59609;52.430;4.668;2023-03-01T01:05:43;18.00;;;7.65;;
71777;SDS011;59609;52.430;4.668;2023-03-01T01:08:08;19.42;;;7.93;;
71777;SDS011;59609;52.430;4.668;2023-03-01T01:10:34;17.95;;;8.27;;
71777;SDS011;59609;52.430;4.668;2023-03-01T01:13:00;22.48;;;8.13;;
71777;SDS011;59609;52.430;4.668;2023-03-01T01:15:26;21.55;;;8.82;;
71777;SDS011;59609;52.430;4.668;2023-03-01T01:17:51;16.85;;;7.55;;
71777;SDS011;59609;52.430;4.668;2023-03-01T01:20:16;20.25;;;8.57;;
71777;SDS011;59609;52.430;4.668;2023-03-01T01:22:42;19.58;;;8.05;;
71777;SDS011;59609;52.430;4.668;2023-03-01T01:25:07;21.15;;;8.60;;
71777;SDS011;59609;52.430;4.668;2023-03-01T01:27:33;22.45;;;9.00;;
71777;SDS011;59609;52.430;4.668;2023-03-01T01:29:59;23.10;;;8.85;;
71777;SDS011;59609;52.430;4.668;2023-03-01T01:32:24;20.70;;;8.52;;
71777;SDS011;59609;52.430;4.668;2023-03-01T01:34:49;19.88;;;9.23;;
71777;SDS011;59609;52.430;4.668;2023-03-01T01:37:15;22.92;;;9.00;;
71777;SDS011;59609;52.430;4.668;2023-03-01T01:39:40;25.20;;;9.63;;
71777;SDS011;59609;52.430;4.668;2023-03-01T01:42:06;22.00;;;8.13;;
71777;SDS011;59609;52.430;4.668;2023-03-01T01:44:39;19.88;;;8.60;;
71777;SDS011;59609;52.430;4.668;2023-03-01T01:47:06;20.02;;;8.88;;
71777;SDS011;59609;52.430;4.668;2023-03-01T01:52:09;19.30;;;8.85;;
71777;SDS011;59609;52.430;4.668;2023-03-01T01:55:03;20.67;;;8.70;;
71777;SDS011;59609;52.430;4.668;2023-03-01T01:57:57;22.63;;;8.80;;
71777;SDS011;59609;52.430;4.668;2023-03-01T02:00:27;22.75;;;9.55;;
71777;SDS011;59609;52.430;4.668;2023-03-01T02:03:01;22.95;;;9.00;;
71777;SDS011;59609;52.430;4.668;2023-03-01T02:05:46;19.63;;;8.48;;
71777;SDS011;59609;52.430;4.668;2023-03-01T02:08:16;22.90;;;9.20;;
71777;SDS011;59609;52.430;4.668;2023-03-01T02:10:44;23.30;;;9.18;;
71777;SDS011;59609;52.430;4.668;2023-03-01T02:13:10;23.17;;;10.02;;
71777;SDS011;59609;52.430;4.668;2023-03-01T02:15:36;21.65;;;8.65;;
71777;SDS011;59609;52.430;4.668;2023-03-01T02:18:03;22.13;;;9.18;;
71777;SDS011;59609;52.430;4.668;2023-03-01T02:23:05;24.65;;;9.80;;
71777;SDS011;59609;52.430;4.668;2023-03-01T02:25:35;27.17;;;9.48;;
71777;SDS011;59609;52.430;4.668;2023-03-01T02:30:41;22.80;;;8.75;;
71777;SDS011;59609;52.430;4.668;2023-03-01T02:33:28;21.77;;;9.52;;
71777;SDS011;59609;52.430;4.668;2023-03-01T02:36:05;20.80;;;9.00;;
71777;SDS011;59609;52.430;4.668;2023-03-01T02:38:34;23.52;;;10.25;;
71777;SDS011;59609;52.430;4.668;2023-03-01T02:40:59;22.73;;;9.07;;
71777;SDS011;59609;52.430;4.668;2023-03-01T02:43:29;30.33;;;11.00;;
71777;SDS011;59609;52.430;4.668;2023-03-01T02:45:58;24.98;;;9.55;;
71777;SDS011;59609;52.430;4.668;2023-03-01T02:48:26;25.75;;;10.23;;
71777;SDS011;59609;52.430;4.668;2023-03-01T02:51:11;25.08;;;9.63;;
71777;SDS011;59609;52.430;4.668;2023-03-01T02:56:40;22.50;;;9.65;;
71777;SDS011;59609;52.430;4.668;2023-03-01T02:59:07;25.83;;;9.63;;
71777;SDS011;59609;52.430;4.668;2023-03-01T03:01:34;27.88;;;10.00;;
71777;SDS011;59609;52.430;4.668;2023-03-01T03:04:03;27.02;;;10.20;;
71777;SDS011;59609;52.430;4.668;2023-03-01T03:06:34;26.38;;;10.20;;
71777;SDS011;59609;52.430;4.668;2023-03-01T03:09:03;25.25;;;9.82;;
71777;SDS011;59609;52.430;4.668;2023-03-01T03:11:29;24.83;;;10.35;;
71777;SDS011;59609;52.430;4.668;2023-03-01T03:13:55;28.10;;;9.95;;
71777;SDS011;59609;52.430;4.668;2023-03-01T03:16:21;27.10;;;10.50;;
71777;SDS011;59609;52.430;4.668;2023-03-01T03:18:47;29.48;;;9.77;;
71777;SDS011;59609;52.430;4.668;2023-03-01T03:21:13;29.08;;;10.57;;
71777;SDS011;59609;52.430;4.668;2023-03-01T03:23:39;25.88;;;9.85;;
71777;SDS011;59609;52.430;4.668;2023-03-01T03:26:04;27.13;;;10.43;;
71777;SDS011;59609;52.430;4.668;2023-03-01T03:28:31;23.27;;;9.63;;
71777;SDS011;59609;52.430;4.668;2023-03-01T03:30:57;25.80;;;9.50;;
71777;SDS011;59609;52.430;4.668;2023-03-01T03:33:23;25.77;;;10.18;;
71777;SDS011;59609;52.430;4.668;2023-03-01T03:35:49;29.95;;;10.13;;
71777;SDS011;59609;52.430;4.668;2023-03-01T03:38:16;34.05;;;10.32;;
71777;SDS011;59609;52.430;4.668;2023-03-01T03:40:45;41.55;;;10.80;;
71777;SDS011;59609;52.430;4.668;2023-03-01T03:43:16;54.08;;;11.68;;
71777;SDS011;59609;52.430;4.668;2023-03-01T03:45:45;39.30;;;10.95;;
71777;SDS011;59609;52.430;4.668;2023-03-01T03:48:11;29.33;;;10.90;;
71777;SDS011;59609;52.430;4.668;2023-03-01T03:50:37;70.07;;;11.25;;
71777;SDS011;59609;52.430;4.668;2023-03-01T03:53:05;47.03;;;9.75;;
71777;SDS011;59609;52.430;4.668;2023-03-01T03:55:35;56.83;;;10.38;;
71777;SDS011;59609;52.430;4.668;2023-03-01T03:58:04;48.15;;;10.82;;
71777;SDS011;59609;52.430;4.668;2023-03-01T04:00:37;85.30;;;11.60;;
71777;SDS011;59609;52.430;4.668;2023-03-01T04:03:05;145.23;;;12.93;;
71777;SDS011;59609;52.430;4.668;2023-03-01T04:05:31;41.78;;;10.65;;
71777;SDS011;59609;52.430;4.668;2023-03-01T04:07:56;101.03;;;12.00;;
71777;SDS011;59609;52.430;4.668;2023-03-01T04:10:29;44.33;;;9.95;;
71777;SDS011;59609;52.430;4.668;2023-03-01T04:12:56;37.80;;;10.68;;
71777;SDS011;59609;52.430;4.668;2023-03-01T04:15:22;35.45;;;9.60;;
71777;SDS011;59609;52.430;4.668;2023-03-01T04:17:50;35.72;;;10.10;;
71777;SDS011;59609;52.430;4.668;2023-03-01T04:20:18;25.73;;;10.75;;
71777;SDS011;59609;52.430;4.668;2023-03-01T04:22:50;29.35;;;10.43;;
71777;SDS011;59609;52.430;4.668;2023-03-01T04:26:08;23.40;;;9.13;;
71777;SDS011;59609;52.430;4.668;2023-03-01T04:31:01;26.73;;;9.88;;
71777;SDS011;59609;52.430;4.668;2023-03-01T04:33:38;27.50;;;9.35;;
71777;SDS011;59609;52.430;4.668;2023-03-01T04:36:14;24.33;;;9.63;;
71777;SDS011;59609;52.430;4.668;2023-03-01T04:38:41;24.35;;;9.35;;
71777;SDS011;59609;52.430;4.668;2023-03-01T04:41:08;22.60;;;9.45;;
71777;SDS011;59609;52.430;4.668;2023-03-01T04:43:34;23.15;;;8.73;;
71777;SDS011;59609;52.430;4.668;2023-03-01T04:46:01;22.60;;;9.65;;
71777;SDS011;59609;52.430;4.668;2023-03-01T04:48:29;19.30;;;8.40;;
71777;SDS011;59609;52.430;4.668;2023-03-01T04:50:55;25.45;;;9.20;;
71777;SDS011;59609;52.430;4.668;2023-03-01T04:53:20;19.63;;;8.00;;
71777;SDS011;59609;52.430;4.668;2023-03-01T04:55:46;37.45;;;10.05;;
71777;SDS011;59609;52.430;4.668;2023-03-01T04:58:11;25.92;;;8.65;;
71777;SDS011;59609;52.430;4.668;2023-03-01T05:00:36;27.75;;;9.25;;
71777;SDS011;59609;52.430;4.668;2023-03-01T05:03:02;21.48;;;8.25;;
71777;SDS011;59609;52.430;4.668;2023-03-01T05:05:34;28.15;;;9.02;;
71777;SDS011;59609;52.430;4.668;2023-03-01T05:08:05;24.77;;;9.10;;
71777;SDS011;59609;52.430;4.668;2023-03-01T05:10:32;20.52;;;8.00;;
71777;SDS011;59609;52.430;4.668;2023-03-01T05:13:00;19.92;;;7.97;;
71777;SDS011;59609;52.430;4.668;2023-03-01T05:15:27;22.15;;;9.27;;
71777;SDS011;59609;52.430;4.668;2023-03-01T05:17:55;23.63;;;8.75;;
71777;SDS011;59609;52.430;4.668;2023-03-01T05:20:24;22.10;;;8.85;;
71777;SDS011;59609;52.430;4.668;2023-03-01T05:22:55;19.55;;;7.88;;
71777;SDS011;59609;52.430;4.668;2023-03-01T05:25:23;18.98;;;8.35;;
71777;SDS011;59609;52.430;4.668;2023-03-01T05:27:50;20.10;;;8.93;;
71777;SDS011;59609;52.430;4.668;2023-03-01T05:30:15;24.98;;;9.02;;
71777;SDS011;59609;52.430;4.668;2023-03-01T05:32:42;26.48;;;9.02;;
71777;SDS011;59609;52.430;4.668;2023-03-01T05:35:11;54.40;;;9.77;;
71777;SDS011;59609;52.430;4.668;2023-03-01T05:37:38;24.45;;;8.98;;
71777;SDS011;59609;52.430;4.668;2023-03-01T05:40:05;49.97;;;10.60;;
71777;SDS011;59609;52.430;4.668;2023-03-01T05:42:30;41.72;;;11.07;;
71777;SDS011;59609;52.430;4.668;2023-03-01T05:44:56;24.02;;;10.35;;
71777;SDS011;59609;52.430;4.668;2023-03-01T05:47:21;21.52;;;9.32;;
71777;SDS011;59609;52.430;4.668;2023-03-01T05:49:47;25.50;;;10.45;;
71777;SDS011;59609;52.430;4.668;2023-03-01T05:52:14;37.45;;;10.65;;
71777;SDS011;59609;52.430;4.668;2023-03-01T05:54:39;27.80;;;9.52;;
71777;SDS011;59609;52.430;4.668;2023-03-01T05:57:05;25.73;;;9.63;;
71777;SDS011;59609;52.430;4.668;2023-03-01T05:59:30;40.17;;;10.27;;
71777;SDS011;59609;52.430;4.668;2023-03-01T06:01:55;54.90;;;10.23;;
71777;SDS011;59609;52.430;4.668;2023-03-01T06:04:23;34.75;;;10.50;;
71777;SDS011;59609;52.430;4.668;2023-03-01T06:06:48;26.02;;;9.50;;
71777;SDS011;59609;52.430;4.668;2023-03-01T06:09:14;36.13;;;10.68;;
71777;SDS011;59609;52.430;4.668;2023-03-01T06:11:39;46.45;;;10.20;;
71777;SDS011;59609;52.430;4.668;2023-03-01T06:14:05;37.10;;;11.25;;
71777;SDS011;59609;52.430;4.668;2023-03-01T06:16:31;33.88;;;10.95;;
71777;SDS011;59609;52.430;4.668;2023-03-01T06:18:56;41.55;;;10.98;;
71777;SDS011;59609;52.430;4.668;2023-03-01T06:21:22;47.88;;;10.45;;
71777;SDS011;59609;52.430;4.668;2023-03-01T06:23:49;28.63;;;9.88;;
71777;SDS011;59609;52.430;4.668;2023-03-01T06:26:15;31.63;;;10.40;;
71777;SDS011;59609;52.430;4.668;2023-03-01T06:28:40;23.10;;;8.40;;
71777;SDS011;59609;52.430;4.668;2023-03-01T06:31:05;26.30;;;10.00;;
71777;SDS011;59609;52.430;4.668;2023-03-01T06:33:33;29.38;;;9.82;;
71777;SDS011;59609;52.430;4.668;2023-03-01T06:35:58;23.23;;;9.95;;
71777;SDS011;59609;52.430;4.668;2023-03-01T06:38:24;24.83;;;10.25;;
71777;SDS011;59609;52.430;4.668;2023-03-01T06:40:53;31.52;;;9.23;;
71777;SDS011;59609;52.430;4.668;2023-03-01T06:43:20;20.92;;;9.05;;
71777;SDS011;59609;52.430;4.668;2023-03-01T06:45:45;22.05;;;8.98;;
71777;SDS011;59609;52.430;4.668;2023-03-01T06:48:11;33.22;;;11.18;;
71777;SDS011;59609;52.430;4.668;2023-03-01T06:50:36;35.30;;;11.48;;
71777;SDS011;59609;52.430;4.668;2023-03-01T06:53:03;27.70;;;9.75;;
71777;SDS011;59609;52.430;4.668;2023-03-01T06:55:29;27.17;;;11.02;;
71777;SDS011;59609;52.430;4.668;2023-03-01T06:57:55;27.13;;;9.88;;
71777;SDS011;59609;52.430;4.668;2023-03-01T07:00:22;25.20;;;10.20;;
71777;SDS011;59609;52.430;4.668;2023-03-01T07:02:51;33.08;;;11.35;;
71777;SDS011;59609;52.430;4.668;2023-03-01T07:05:17;30.05;;;11.23;;
71777;SDS011;59609;52.430;4.668;2023-03-01T07:07:42;25.88;;;10.20;;
71777;SDS011;59609;52.430;4.668;2023-03-01T07:10:08;30.15;;;11.00;;
71777;SDS011;59609;52.430;4.668;2023-03-01T07:12:34;32.22;;;11.20;;
71777;SDS011;59609;52.430;4.668;2023-03-01T07:14:59;28.80;;;11.40;;
71777;SDS011;59609;52.430;4.668;2023-03-01T07:17:24;28.08;;;11.77;;
71777;SDS011;59609;52.430;4.668;2023-03-01T07:19:50;30.05;;;11.88;;
71777;SDS011;59609;52.430;4.668;2023-03-01T07:22:15;37.22;;;11.73;;
71777;SDS011;59609;52.430;4.668;2023-03-01T07:24:41;39.90;;;11.23;;
71777;SDS011;59609;52.430;4.668;2023-03-01T07:27:07;54.88;;;11.45;;
71777;SDS011;59609;52.430;4.668;2023-03-01T07:29:32;84.40;;;13.27;;
71777;SDS011;59609;52.430;4.668;2023-03-01T07:31:57;55.40;;;10.23;;
71777;SDS011;59609;52.430;4.668;2023-03-01T07:34:23;88.93;;;12.40;;
71777;SDS011;59609;52.430;4.668;2023-03-01T07:36:48;100.72;;;11.40;;
71777;SDS011;59609;52.430;4.668;2023-03-01T07:39:14;32.70;;;9.95;;
71777;SDS011;59609;52.430;4.668;2023-03-01T07:41:39;42.65;;;9.68;;
71777;SDS011;59609;52.430;4.668;2023-03-01T07:44:06;83.70;;;11.13;;
71777;SDS011;59609;52.430;4.668;2023-03-01T07:46:31;87.05;;;11.30;;
71777;SDS011;59609;52.430;4.668;2023-03-01T07:48:57;63.90;;;9.35;;
71777;SDS011;59609;52.430;4.668;2023-03-01T07:51:23;69.38;;;11.15;;
71777;SDS011;59609;52.430;4.668;2023-03-01T07:53:48;95.35;;;10.70;;
71777;SDS011;59609;52.430;4.668;2023-03-01T07:56:14;70.25;;;12.50;;
71777;SDS011;59609;52.430;4.668;2023-03-01T07:58:43;40.58;;;9.55;;
71777;SDS011;59609;52.430;4.668;2023-03-01T08:01:11;44.67;;;8.85;;
71777;SDS011;59609;52.430;4.668;2023-03-01T08:03:38;23.80;;;9.43;;
71777;SDS011;59609;52.430;4.668;2023-03-01T08:06:05;21.85;;;10.23;;
71777;SDS011;59609;52.430;4.668;2023-03-01T08:08:32;25.73;;;9.68;;
71777;SDS011;59609;52.430;4.668;2023-03-01T08:11:00;24.95;;;10.43;;
71777;SDS011;59609;52.430;4.668;2023-03-01T08:13:28;21.38;;;9.57;;
71777;SDS011;59609;52.430;4.668;2023-03-01T08:15:53;24.52;;;10.73;;
71777;SDS011;59609;52.430;4.668;2023-03-01T08:18:19;27.00;;;11.75;;
71777;SDS011;59609;52.430;4.668;2023-03-01T08:20:46;23.20;;;10.55;;
71777;SDS011;59609;52.430;4.668;2023-03-01T08:23:12;22.67;;;10.43;;
71777;SDS011;59609;52.430;4.668;2023-03-01T08:25:37;20.92;;;10.50;;
71777;SDS011;59609;52.430;4.668;2023-03-01T08:28:03;23.65;;;10.90;;
71777;SDS011;59609;52.430;4.668;2023-03-01T08:30:29;25.90;;;10.95;;
71777;SDS011;59609;52.430;4.668;2023-03-01T08:32:54;24.05;;;11.55;;
71777;SDS011;59609;52.430;4.668;2023-03-01T08:35:20;24.73;;;11.45;;
71777;SDS011;59609;52.430;4.668;2023-03-01T08:37:46;21.83;;;10.68;;
71777;SDS011;59609;52.430;4.668;2023-03-01T08:40:12;26.65;;;11.63;;
71777;SDS011;59609;52.430;4.668;2023-03-01T08:42:38;32.13;;;12.82;;
71777;SDS011;59609;52.430;4.668;2023-03-01T08:45:10;36.67;;;13.65;;
71777;SDS011;59609;52.430;4.668;2023-03-01T08:47:36;35.28;;;12.55;;
71777;SDS011;59609;52.430;4.668;2023-03-01T08:50:02;47.83;;;13.93;;
71777;SDS011;59609;52.430;4.668;2023-03-01T08:52:28;46.58;;;14.18;;
71777;SDS011;59609;52.430;4.668;2023-03-01T08:54:55;46.40;;;13.50;;
71777;SDS011;59609;52.430;4.668;2023-03-01T08:57:20;28.90;;;11.45;;
71777;SDS011;59609;52.430;4.668;2023-03-01T08:59:46;43.95;;;12.55;;
71777;SDS011;59609;52.430;4.668;2023-03-01T09:02:12;77.40;;;14.93;;
71777;SDS011;59609;52.430;4.668;2023-03-01T09:04:39;83.60;;;15.80;;
71777;SDS011;59609;52.430;4.668;2023-03-01T09:07:07;63.58;;;13.77;;
71777;SDS011;59609;52.430;4.668;2023-03-01T09:09:33;62.25;;;14.27;;
71777;SDS011;59609;52.430;4.668;2023-03-01T09:11:59;66.82;;;15.38;;
71777;SDS011;59609;52.430;4.668;2023-03-01T09:14:24;60.40;;;13.57;;
71777;SDS011;59609;52.430;4.668;2023-03-01T09:16:49;57.28;;;15.82;;
71777;SDS011;59609;52.430;4.668;2023-03-01T09:19:15;38.78;;;14.15;;
71777;SDS011;59609;52.430;4.668;2023-03-01T09:21:41;38.85;;;15.63;;
71777;SDS011;59609;52.430;4.668;2023-03-01T09:24:17;42.05;;;14.68;;
71777;SDS011;59609;52.430;4.668;2023-03-01T09:26:44;34.25;;;15.02;;
71777;SDS011;59609;52.430;4.668;2023-03-01T09:29:13;37.08;;;14.52;;
71777;SDS011;59609;52.430;4.668;2023-03-01T09:31:39;34.20;;;15.25;;
71777;SDS011;59609;52.430;4.668;2023-03-01T09:34:06;28.75;;;13.15;;
71777;SDS011;59609;52.430;4.668;2023-03-01T09:36:32;31.83;;;14.07;;
71777;SDS011;59609;52.430;4.668;2023-03-01T09:38:58;38.70;;;16.50;;
71777;SDS011;59609;52.430;4.668;2023-03-01T09:47:08;32.20;;;14.18;;
71777;SDS011;59609;52.430;4.668;2023-03-01T09:49:42;30.63;;;13.75;;
71777;SDS011;59609;52.430;4.668;2023-03-01T09:55:43;29.98;;;13.95;;
71777;SDS011;59609;52.430;4.668;2023-03-01T10:00:54;28.35;;;13.38;;
71777;SDS011;59609;52.430;4.668;2023-03-01T10:03:28;26.52;;;12.77;;
71777;SDS011;59609;52.430;4.668;2023-03-01T10:06:02;25.23;;;11.55;;
71777;SDS011;59609;52.430;4.668;2023-03-01T10:11:22;25.17;;;11.73;;
71777;SDS011;59609;52.430;4.668;2023-03-01T10:13:54;21.92;;;10.90;;
71777;SDS011;59609;52.430;4.668;2023-03-01T10:16:34;23.02;;;11.00;;
71777;SDS011;59609;52.430;4.668;2023-03-01T10:19:28;24.10;;;11.25;;
71777;SDS011;59609;52.430;4.668;2023-03-01T10:22:03;24.75;;;10.90;;
71777;SDS011;59609;52.430;4.668;2023-03-01T10:24:35;23.73;;;11.48;;
71777;SDS011;59609;52.430;4.668;2023-03-01T10:27:04;21.70;;;10.48;;
71777;SDS011;59609;52.430;4.668;2023-03-01T10:29:39;21.95;;;11.98;;
71777;SDS011;59609;52.430;4.668;2023-03-01T10:32:13;21.20;;;10.73;;
71777;SDS011;59609;52.430;4.668;2023-03-01T10:34:39;20.80;;;10.13;;
71777;SDS011;59609;52.430;4.668;2023-03-01T10:37:12;20.00;;;9.65;;
71777;SDS011;59609;52.430;4.668;2023-03-01T10:39:56;19.85;;;9.38;;
71777;SDS011;59609;52.430;4.668;2023-03-01T10:42:38;18.85;;;9.45;;
71777;SDS011;59609;52.430;4.668;2023-03-01T10:45:15;16.70;;;9.27;;
71777;SDS011;59609;52.430;4.668;2023-03-01T10:50:50;14.05;;;8.00;;
71777;SDS011;59609;52.430;4.668;2023-03-01T10:53:34;14.13;;;7.93;;
71777;SDS011;59609;52.430;4.668;2023-03-01T10:56:03;17.73;;;7.43;;
71777;SDS011;59609;52.430;4.668;2023-03-01T10:58:30;12.98;;;7.68;;
71777;SDS011;59609;52.430;4.668;2023-03-01T11:00:59;15.10;;;8.02;;
71777;SDS011;59609;52.430;4.668;2023-03-01T11:03:30;13.23;;;7.82;;
71777;SDS011;59609;52.430;4.668;2023-03-01T11:11:18;12.95;;;7.72;;
71777;SDS011;59609;52.430;4.668;2023-03-01T11:13:48;13.10;;;7.28;;
71777;SDS011;59609;52.430;4.668;2023-03-01T11:16:31;12.00;;;7.45;;
71777;SDS011;59609;52.430;4.668;2023-03-01T11:21:34;10.25;;;6.40;;
71777;SDS011;59609;52.430;4.668;2023-03-01T11:24:02;10.00;;;6.35;;
71777;SDS011;59609;52.430;4.668;2023-03-01T11:26:31;9.93;;;5.93;;
71777;SDS011;59609;52.430;4.668;2023-03-01T11:29:05;9.73;;;5.72;;
71777;SDS011;59609;52.430;4.668;2023-03-01T11:31:38;8.30;;;5.40;;
71777;SDS011;59609;52.430;4.668;2023-03-01T11:34:12;8.73;;;5.93;;
71777;SDS011;59609;52.430;4.668;2023-03-01T11:36:47;9.98;;;5.75;;
71777;SDS011;59609;52.430;4.668;2023-03-01T11:42:00;7.90;;;5.07;;
71777;SDS011;59609;52.430;4.668;2023-03-01T11:44:33;9.13;;;5.60;;
71777;SDS011;59609;52.430;4.668;2023-03-01T11:55:11;7.95;;;4.60;;
71777;SDS011;59609;52.430;4.668;2023-03-01T12:00:57;10.40;;;5.55;;
71777;SDS011;59609;52.430;4.668;2023-03-01T12:14:50;10.77;;;5.63;;
71777;SDS011;59609;52.430;4.668;2023-03-01T12:20:35;9.80;;;5.57;;
71777;SDS011;59609;52.430;4.668;2023-03-01T12:37:42;9.20;;;5.38;;
71777;SDS011;59609;52.430;4.668;2023-03-01T12:40:37;11.38;;;5.13;;
71777;SDS011;59609;52.430;4.668;2023-03-01T12:43:31;10.52;;;5.75;;
71777;SDS011;59609;52.430;4.668;2023-03-01T12:49:22;10.23;;;5.55;;
71777;SDS011;59609;52.430;4.668;2023-03-01T12:51:53;10.93;;;5.53;;
71777;SDS011;59609;52.430;4.668;2023-03-01T12:54:28;12.93;;;5.70;;
71777;SDS011;59609;52.430;4.668;2023-03-01T12:56:57;10.35;;;5.95;;
71777;SDS011;59609;52.430;4.668;2023-03-01T13:00:00;12.07;;;6.13;;
71777;SDS011;59609;52.430;4.668;2023-03-01T13:03:05;10.10;;;5.18;;
71777;SDS011;59609;52.430;4.668;2023-03-01T13:08:15;11.25;;;5.80;;
71777;SDS011;59609;52.430;4.668;2023-03-01T13:11:05;11.80;;;5.75;;
71777;SDS011;59609;52.430;4.668;2023-03-01T13:13:36;10.93;;;5.82;;
71777;SDS011;59609;52.430;4.668;2023-03-01T13:16:21;10.15;;;5.38;;
71777;SDS011;59609;52.430;4.668;2023-03-01T13:19:05;10.85;;;5.38;;
71777;SDS011;59609;52.430;4.668;2023-03-01T13:23:58;14.07;;;6.07;;
71777;SDS011;59609;52.430;4.668;2023-03-01T13:26:24;8.70;;;5.05;;
71777;SDS011;59609;52.430;4.668;2023-03-01T13:28:53;9.07;;;4.93;;
71777;SDS011;59609;52.430;4.668;2023-03-01T13:41:48;11.40;;;5.88;;
71777;SDS011;59609;52.430;4.668;2023-03-01T13:46:59;11.70;;;5.97;;
71777;SDS011;59609;52.430;4.668;2023-03-01T13:49:41;10.20;;;5.13;;
71777;SDS011;59609;52.430;4.668;2023-03-01T13:52:21;12.63;;;5.97;;
71777;SDS011;59609;52.430;4.668;2023-03-01T13:57:53;11.87;;;6.17;;
71777;SDS011;59609;52.430;4.668;2023-03-01T14:00:25;11.60;;;6.25;;
71777;SDS011;59609;52.430;4.668;2023-03-01T14:03:03;11.02;;;5.93;;
71777;SDS011;59609;52.430;4.668;2023-03-01T14:05:41;16.17;;;6.72;;
71777;SDS011;59609;52.430;4.668;2023-03-01T14:08:18;12.20;;;6.00;;
71777;SDS011;59609;52.430;4.668;2023-03-01T14:11:35;11.88;;;6.72;;
71777;SDS011;59609;52.430;4.668;2023-03-01T14:14:02;13.40;;;5.88;;
71777;SDS011;59609;52.430;4.668;2023-03-01T14:16:49;14.65;;;6.60;;
71777;SDS011;59609;52.430;4.668;2023-03-01T14:27:35;13.80;;;6.47;;
71777;SDS011;59609;52.430;4.668;2023-03-01T14:30:10;12.68;;;6.72;;
71777;SDS011;59609;52.430;4.668;2023-03-01T14:32:37;14.82;;;7.00;;
71777;SDS011;59609;52.430;4.668;2023-03-01T14:35:18;12.40;;;6.55;;
71777;SDS011;59609;52.430;4.668;2023-03-01T14:37:45;16.10;;;7.95;;
71777;SDS011;59609;52.430;4.668;2023-03-01T14:40:20;15.02;;;7.97;;
71777;SDS011;59609;52.430;4.668;2023-03-01T14:42:48;14.82;;;6.85;;
71777;SDS011;59609;52.430;4.668;2023-03-01T14:45:14;13.35;;;7.00;;
71777;SDS011;59609;52.430;4.668;2023-03-01T14:47:39;12.35;;;6.50;;
71777;SDS011;59609;52.430;4.668;2023-03-01T14:50:10;12.73;;;5.95;;
71777;SDS011;59609;52.430;4.668;2023-03-01T14:52:45;11.48;;;5.57;;
71777;SDS011;59609;52.430;4.668;2023-03-01T14:55:15;10.27;;;5.55;;
71777;SDS011;59609;52.430;4.668;2023-03-01T14:57:43;11.23;;;5.90;;
71777;SDS011;59609;52.430;4.668;2023-03-01T15:00:16;9.85;;;5.07;;
71777;SDS011;59609;52.430;4.668;2023-03-01T15:02:46;11.27;;;5.22;;
71777;SDS011;59609;52.430;4.668;2023-03-01T15:05:13;12.00;;;5.75;;
71777;SDS011;59609;52.430;4.668;2023-03-01T15:07:43;10.77;;;5.93;;
71777;SDS011;59609;52.430;4.668;2023-03-01T15:10:30;12.75;;;6.10;;
71777;SDS011;59609;52.430;4.668;2023-03-01T15:13:10;11.43;;;5.70;;
71777;SDS011;59609;52.430;4.668;2023-03-01T15:15:45;13.23;;;6.47;;
71777;SDS011;59609;52.430;4.668;2023-03-01T15:20:45;11.65;;;5.32;;
71777;SDS011;59609;52.430;4.668;2023-03-01T15:23:17;11.52;;;5.78;;
71777;SDS011;59609;52.430;4.668;2023-03-01T15:25:43;12.57;;;5.88;;
71777;SDS011;59609;52.430;4.668;2023-03-01T15:28:18;12.05;;;5.93;;
71777;SDS011;59609;52.430;4.668;2023-03-01T15:30:45;12.13;;;6.22;;
71777;SDS011;59609;52.430;4.668;2023-03-01T15:33:27;10.02;;;5.35;;
71777;SDS011;59609;52.430;4.668;2023-03-01T15:35:55;13.48;;;6.63;;
71777;SDS011;59609;52.430;4.668;2023-03-01T15:38:30;11.23;;;6.03;;
71777;SDS011;59609;52.430;4.668;2023-03-01T15:40:57;10.27;;;5.60;;
71777;SDS011;59609;52.430;4.668;2023-03-01T15:46:17;10.90;;;5.80;;
71777;SDS011;59609;52.430;4.668;2023-03-01T15:48:47;10.68;;;6.07;;
71777;SDS011;59609;52.430;4.668;2023-03-01T15:51:17;11.00;;;5.22;;
71777;SDS011;59609;52.430;4.668;2023-03-01T15:53:48;10.05;;;5.25;;
71777;SDS011;59609;52.430;4.668;2023-03-01T15:56:16;11.93;;;5.97;;
71777;SDS011;59609;52.430;4.668;2023-03-01T15:58:42;11.95;;;5.40;;
71777;SDS011;59609;52.430;4.668;2023-03-01T16:01:12;13.25;;;6.15;;
71777;SDS011;59609;52.430;4.668;2023-03-01T16:03:38;9.55;;;5.00;;
71777;SDS011;59609;52.430;4.668;2023-03-01T16:06:03;8.80;;;4.63;;
71777;SDS011;59609;52.430;4.668;2023-03-01T16:08:29;11.35;;;5.30;;
71777;SDS011;59609;52.430;4.668;2023-03-01T16:10:54;10.77;;;4.88;;
71777;SDS011;59609;52.430;4.668;2023-03-01T16:13:20;12.32;;;5.45;;
71777;SDS011;59609;52.430;4.668;2023-03-01T16:15:45;10.45;;;5.10;;
71777;SDS011;59609;52.430;4.668;2023-03-01T16:18:10;10.50;;;4.85;;
71777;SDS011;59609;52.430;4.668;2023-03-01T16:20:36;10.85;;;5.25;;
71777;SDS011;59609;52.430;4.668;2023-03-01T16:23:04;12.23;;;5.20;;
71777;SDS011;59609;52.430;4.668;2023-03-01T16:25:31;11.68;;;5.22;;
71777;SDS011;59609;52.430;4.668;2023-03-01T16:27:57;11.38;;;5.22;;
71777;SDS011;59609;52.430;4.668;2023-03-01T16:30:26;10.52;;;5.35;;
71777;SDS011;59609;52.430;4.668;2023-03-01T16:32:51;11.85;;;5.45;;
71777;SDS011;59609;52.430;4.668;2023-03-01T16:35:19;10.38;;;5.07;;
71777;SDS011;59609;52.430;4.668;2023-03-01T16:37:45;11.73;;;5.45;;
71777;SDS011;59609;52.430;4.668;2023-03-01T16:40:18;9.00;;;5.03;;
71777;SDS011;59609;52.430;4.668;2023-03-01T16:42:47;13.73;;;5.05;;
71777;SDS011;59609;52.430;4.668;2023-03-01T16:45:13;10.98;;;5.10;;